sensor_id;sensor_type;location;lat;lon;timestamp;P1;durP1;ratioP1;P2;durP2;ratioP2
69005;SDS011;56061;51.748;19.620;2023-04-06T10:21:50;6.80;;;3.60;;
69005;SDS011;56061;51.748;19.620;2023-04-06T10:24:21;7.10;;;3.60;;
69005;SDS011;56061;51.748;19.620;2023-04-06T10:27:03;8.40;;;3.70;;
69005;SDS011;56061;51.748;19.620;2023-04-06T10:29:48;7.30;;;4.00;;
69005;SDS011;56061;51.748;19.620;2023-04-06T10:32:16;8.20;;;4.00;;
69005;SDS011;56061;51.748;19.620;2023-04-06T10:34:43;8.00;;;3.40;;
69005;SDS011;56061;51.748;19.620;2023-04-06T10:37:15;9.40;;;4.30;;
69005;SDS011;56061;51.748;19.620;2023-04-06T10:39:52;8.60;;;4.10;;
69005;SDS011;56061;51.748;19.620;2023-04-06T10:42:24;8.70;;;4.30;;
69005;SDS011;56061;51.748;19.620;2023-04-06T10:44:52;8.40;;;3.80;;
69005;SDS011;56061;51.748;19.620;2023-04-06T10:47:19;10.30;;;4.70;;
69005;SDS011;56061;51.748;19.620;2023-04-06T10:49:46;12.60;;;5.90;;
69005;SDS011;56061;51.748;19.620;2023-04-06T10:52:12;13.10;;;6.40;;
69005;SDS011;56061;51.748;19.620;2023-04-06T10:54:42;10.80;;;4.50;;
69005;SDS011;56061;51.748;19.620;2023-04-06T10:57:13;7.40;;;4.30;;
69005;SDS011;56061;51.748;19.620;2023-04-06T10:59:43;8.70;;;4.70;;
69005;SDS011;56061;51.748;19.620;2023-04-06T11:02:19;9.00;;;4.00;;
69005;SDS011;56061;51.748;19.620;2023-04-06T11:04:54;10.50;;;3.90;;
69005;SDS011;56061;51.748;19.620;2023-04-06T11:07:26;8.30;;;4.30;;
69005;SDS011;56061;51.748;19.620;2023-04-06T11:09:56;8.90;;;4.70;;
69005;SDS011;56061;51.748;19.620;2023-04-06T11:12:41;8.10;;;3.20;;
69005;SDS011;56061;51.748;19.620;2023-04-06T11:15:08;9.40;;;4.60;;
69005;SDS011;56061;51.748;19.620;2023-04-06T11:17:36;8.70;;;4.40;;
69005;SDS011;56061;51.748;19.620;2023-04-06T11:20:04;7.80;;;3.80;;
69005;SDS011;56061;51.748;19.620;2023-04-06T11:22:35;9.00;;;4.90;;
69005;SDS011;56061;51.748;19.620;2023-04-06T11:25:05;8.40;;;3.90;;
69005;SDS011;56061;51.748;19.620;2023-04-06T11:27:39;9.00;;;3.90;;
69005;SDS011;56061;51.748;19.620;2023-04-06T11:30:10;9.50;;;5.60;;
69005;SDS011;56061;51.748;19.620;2023-04-06T11:32:44;10.00;;;5.10;;
69005;SDS011;56061;51.748;19.620;2023-04-06T11:35:22;6.90;;;3.80;;
69005;SDS011;56061;51.748;19.620;2023-04-06T11:37:52;9.10;;;5.50;;
69005;SDS011;56061;51.748;19.620;2023-04-06T11:40:22;10.30;;;5.80;;
69005;SDS011;56061;51.748;19.620;2023-04-06T11:42:53;8.60;;;5.50;;
69005;SDS011;56061;51.748;19.620;2023-04-06T11:45:22;8.80;;;5.80;;
69005;SDS011;56061;51.748;19.620;2023-04-06T11:48:01;8.10;;;4.50;;
69005;SDS011;56061;51.748;19.620;2023-04-06T11:50:34;8.40;;;4.60;;
69005;SDS011;56061;51.748;19.620;2023-04-06T11:53:02;7.90;;;5.00;;
69005;SDS011;56061;51.748;19.620;2023-04-06T11:55:37;12.30;;;6.40;;
69005;SDS011;56061;51.748;19.620;2023-04-06T11:58:05;9.40;;;5.40;;
69005;SDS011;56061;51.748;19.620;2023-04-06T12:00:33;11.90;;;7.00;;
69005;SDS011;56061;51.748;19.620;2023-04-06T12:03:01;9.00;;;5.40;;
69005;SDS011;56061;51.748;19.620;2023-04-06T12:05:27;9.90;;;4.70;;
69005;SDS011;56061;51.748;19.620;2023-04-06T12:07:54;7.60;;;3.90;;
69005;SDS011;56061;51.748;19.620;2023-04-06T12:10:21;9.50;;;4.60;;
69005;SDS011;56061;51.748;19.620;2023-04-06T12:12:49;9.10;;;5.20;;
69005;SDS011;56061;51.748;19.620;2023-04-06T12:15:15;7.10;;;4.20;;
69005;SDS011;56061;51.748;19.620;2023-04-06T12:17:41;8.80;;;5.10;;
69005;SDS011;56061;51.748;19.620;2023-04-06T12:20:09;9.60;;;5.50;;
69005;SDS011;56061;51.748;19.620;2023-04-06T12:22:50;9.10;;;5.30;;
69005;SDS011;56061;51.748;19.620;2023-04-06T12:25:18;9.50;;;5.20;;
69005;SDS011;56061;51.748;19.620;2023-04-06T12:27:44;8.40;;;4.10;;
69005;SDS011;56061;51.748;19.620;2023-04-06T12:30:12;9.80;;;4.80;;
69005;SDS011;56061;51.748;19.620;2023-04-06T12:32:38;7.60;;;4.20;;
69005;SDS011;56061;51.748;19.620;2023-04-06T12:35:05;7.40;;;4.40;;
69005;SDS011;56061;51.748;19.620;2023-04-06T12:37:32;8.60;;;4.40;;
69005;SDS011;56061;51.748;19.620;2023-04-06T12:40:01;8.70;;;4.50;;
69005;SDS011;56061;51.748;19.620;2023-04-06T12:42:29;9.10;;;4.40;;
69005;SDS011;56061;51.748;19.620;2023-04-06T12:44:56;10.60;;;5.40;;
69005;SDS011;56061;51.748;19.620;2023-04-06T12:47:25;9.90;;;4.50;;
69005;SDS011;56061;51.748;19.620;2023-04-06T12:49:53;9.00;;;4.80;;
69005;SDS011;56061;51.748;19.620;2023-04-06T12:52:21;10.30;;;4.80;;
69005;SDS011;56061;51.748;19.620;2023-04-06T12:54:48;8.80;;;4.50;;
69005;SDS011;56061;51.748;19.620;2023-04-06T12:57:16;9.20;;;5.00;;
69005;SDS011;56061;51.748;19.620;2023-04-06T12:59:43;8.30;;;4.30;;
69005;SDS011;56061;51.748;19.620;2023-04-06T13:02:11;7.50;;;4.00;;
69005;SDS011;56061;51.748;19.620;2023-04-06T13:04:38;9.80;;;5.00;;
69005;SDS011;56061;51.748;19.620;2023-04-06T13:07:05;9.40;;;4.80;;
69005;SDS011;56061;51.748;19.620;2023-04-06T13:09:31;7.90;;;4.60;;
69005;SDS011;56061;51.748;19.620;2023-04-06T13:11:58;9.70;;;5.30;;
69005;SDS011;56061;51.748;19.620;2023-04-06T13:14:24;7.40;;;4.00;;
69005;SDS011;56061;51.748;19.620;2023-04-06T13:16:51;7.60;;;4.30;;
69005;SDS011;56061;51.748;19.620;2023-04-06T13:19:21;8.90;;;5.70;;
69005;SDS011;56061;51.748;19.620;2023-04-06T13:21:47;12.00;;;5.50;;
69005;SDS011;56061;51.748;19.620;2023-04-06T13:24:14;8.70;;;4.80;;
69005;SDS011;56061;51.748;19.620;2023-04-06T13:26:42;9.50;;;4.30;;
69005;SDS011;56061;51.748;19.620;2023-04-06T13:29:09;9.50;;;5.20;;
69005;SDS011;56061;51.748;19.620;2023-04-06T13:31:39;10.40;;;5.50;;
69005;SDS011;56061;51.748;19.620;2023-04-06T13:34:05;9.90;;;4.70;;
69005;SDS011;56061;51.748;19.620;2023-04-06T13:36:32;8.30;;;5.00;;
69005;SDS011;56061;51.748;19.620;2023-04-06T13:38:59;9.10;;;5.40;;
69005;SDS011;56061;51.748;19.620;2023-04-06T13:41:26;9.80;;;5.00;;
69005;SDS011;56061;51.748;19.620;2023-04-06T13:43:52;11.50;;;6.00;;
69005;SDS011;56061;51.748;19.620;2023-04-06T13:46:19;9.70;;;5.80;;
69005;SDS011;56061;51.748;19.620;2023-04-06T13:48:46;10.00;;;5.50;;
69005;SDS011;56061;51.748;19.620;2023-04-06T13:51:14;10.90;;;5.70;;
69005;SDS011;56061;51.748;19.620;2023-04-06T13:53:41;9.50;;;4.60;;
69005;SDS011;56061;51.748;19.620;2023-04-06T13:56:08;12.50;;;6.00;;
69005;SDS011;56061;51.748;19.620;2023-04-06T13:58:35;12.40;;;6.10;;
69005;SDS011;56061;51.748;19.620;2023-04-06T14:01:11;10.00;;;5.60;;
69005;SDS011;56061;51.748;19.620;2023-04-06T14:03:38;9.40;;;5.20;;
69005;SDS011;56061;51.748;19.620;2023-04-06T14:06:12;10.50;;;5.80;;
69005;SDS011;56061;51.748;19.620;2023-04-06T14:08:43;9.90;;;5.60;;
69005;SDS011;56061;51.748;19.620;2023-04-06T14:11:11;9.90;;;5.00;;
69005;SDS011;56061;51.748;19.620;2023-04-06T14:13:39;10.30;;;6.00;;
69005;SDS011;56061;51.748;19.620;2023-04-06T14:16:06;12.90;;;5.50;;
69005;SDS011;56061;51.748;19.620;2023-04-06T14:18:33;8.70;;;5.20;;
69005;SDS011;56061;51.748;19.620;2023-04-06T14:21:00;12.40;;;6.40;;
69005;SDS011;56061;51.748;19.620;2023-04-06T14:23:28;11.50;;;6.30;;
69005;SDS011;56061;51.748;19.620;2023-04-06T14:26:04;12.10;;;6.90;;
69005;SDS011;56061;51.748;19.620;2023-04-06T14:28:33;12.50;;;6.50;;
69005;SDS011;56061;51.748;19.620;2023-04-06T14:31:01;14.80;;;6.20;;
69005;SDS011;56061;51.748;19.620;2023-04-06T14:33:35;17.70;;;8.80;;
69005;SDS011;56061;51.748;19.620;2023-04-06T14:36:03;15.90;;;8.90;;
69005;SDS011;56061;51.748;19.620;2023-04-06T14:38:31;14.40;;;7.60;;
69005;SDS011;56061;51.748;19.620;2023-04-06T14:40:58;14.00;;;7.10;;
69005;SDS011;56061;51.748;19.620;2023-04-06T14:43:25;13.20;;;7.10;;
69005;SDS011;56061;51.748;19.620;2023-04-06T14:45:52;11.30;;;7.30;;
69005;SDS011;56061;51.748;19.620;2023-04-06T14:48:22;12.50;;;4.80;;
69005;SDS011;56061;51.748;19.620;2023-04-06T14:50:55;14.30;;;7.90;;
69005;SDS011;56061;51.748;19.620;2023-04-06T14:53:23;15.50;;;8.20;;
69005;SDS011;56061;51.748;19.620;2023-04-06T14:55:50;14.60;;;7.70;;
69005;SDS011;56061;51.748;19.620;2023-04-06T14:58:21;15.10;;;8.20;;
69005;SDS011;56061;51.748;19.620;2023-04-06T15:00:58;13.20;;;7.50;;
69005;SDS011;56061;51.748;19.620;2023-04-06T15:03:26;13.20;;;7.50;;
69005;SDS011;56061;51.748;19.620;2023-04-06T15:05:55;17.50;;;8.20;;
69005;SDS011;56061;51.748;19.620;2023-04-06T15:08:23;15.40;;;8.20;;
69005;SDS011;56061;51.748;19.620;2023-04-06T15:10:51;14.00;;;8.40;;
69005;SDS011;56061;51.748;19.620;2023-04-06T15:13:18;11.90;;;6.70;;
69005;SDS011;56061;51.748;19.620;2023-04-06T15:15:44;12.90;;;7.50;;
69005;SDS011;56061;51.748;19.620;2023-04-06T15:18:11;19.30;;;8.30;;
69005;SDS011;56061;51.748;19.620;2023-04-06T15:20:38;31.50;;;15.30;;
69005;SDS011;56061;51.748;19.620;2023-04-06T15:23:04;19.60;;;10.00;;
69005;SDS011;56061;51.748;19.620;2023-04-06T15:25:34;14.80;;;6.80;;
69005;SDS011;56061;51.748;19.620;2023-04-06T15:28:00;14.00;;;8.20;;
69005;SDS011;56061;51.748;19.620;2023-04-06T15:30:27;13.30;;;8.30;;
69005;SDS011;56061;51.748;19.620;2023-04-06T15:33:00;13.00;;;7.50;;
69005;SDS011;56061;51.748;19.620;2023-04-06T15:35:27;11.40;;;7.30;;
69005;SDS011;56061;51.748;19.620;2023-04-06T15:37:58;16.50;;;9.10;;
69005;SDS011;56061;51.748;19.620;2023-04-06T15:40:24;15.30;;;8.50;;
69005;SDS011;56061;51.748;19.620;2023-04-06T15:42:51;12.80;;;6.10;;
69005;SDS011;56061;51.748;19.620;2023-04-06T15:45:18;10.80;;;5.60;;
69005;SDS011;56061;51.748;19.620;2023-04-06T15:47:44;14.70;;;7.40;;
69005;SDS011;56061;51.748;19.620;2023-04-06T15:50:12;11.30;;;6.20;;
69005;SDS011;56061;51.748;19.620;2023-04-06T15:52:39;13.50;;;7.60;;
69005;SDS011;56061;51.748;19.620;2023-04-06T15:55:07;12.00;;;6.40;;
69005;SDS011;56061;51.748;19.620;2023-04-06T15:57:34;11.30;;;6.50;;
69005;SDS011;56061;51.748;19.620;2023-04-06T16:00:01;13.30;;;6.90;;
69005;SDS011;56061;51.748;19.620;2023-04-06T16:02:29;10.60;;;6.00;;
69005;SDS011;56061;51.748;19.620;2023-04-06T16:04:57;13.40;;;7.00;;
69005;SDS011;56061;51.748;19.620;2023-04-06T16:07:27;23.30;;;13.00;;
69005;SDS011;56061;51.748;19.620;2023-04-06T16:09:54;16.50;;;9.30;;
69005;SDS011;56061;51.748;19.620;2023-04-06T16:12:21;17.40;;;10.70;;
69005;SDS011;56061;51.748;19.620;2023-04-06T16:14:48;14.10;;;8.00;;
69005;SDS011;56061;51.748;19.620;2023-04-06T16:17:15;13.00;;;6.70;;
69005;SDS011;56061;51.748;19.620;2023-04-06T16:19:42;12.30;;;6.40;;
69005;SDS011;56061;51.748;19.620;2023-04-06T16:22:08;15.40;;;8.70;;
69005;SDS011;56061;51.748;19.620;2023-04-06T16:24:35;17.10;;;9.00;;
69005;SDS011;56061;51.748;19.620;2023-04-06T16:27:03;16.80;;;10.50;;
69005;SDS011;56061;51.748;19.620;2023-04-06T16:29:34;20.60;;;12.30;;
69005;SDS011;56061;51.748;19.620;2023-04-06T16:32:02;15.50;;;9.40;;
69005;SDS011;56061;51.748;19.620;2023-04-06T16:34:30;15.20;;;8.70;;
69005;SDS011;56061;51.748;19.620;2023-04-06T16:36:58;17.00;;;9.60;;
69005;SDS011;56061;51.748;19.620;2023-04-06T16:39:24;16.70;;;9.50;;
69005;SDS011;56061;51.748;19.620;2023-04-06T16:41:51;17.50;;;9.50;;
69005;SDS011;56061;51.748;19.620;2023-04-06T16:44:17;23.10;;;11.40;;
69005;SDS011;56061;51.748;19.620;2023-04-06T16:46:44;17.30;;;8.40;;
69005;SDS011;56061;51.748;19.620;2023-04-06T16:49:11;15.90;;;9.30;;
69005;SDS011;56061;51.748;19.620;2023-04-06T16:51:39;21.80;;;11.50;;
69005;SDS011;56061;51.748;19.620;2023-04-06T16:54:07;19.50;;;9.20;;
69005;SDS011;56061;51.748;19.620;2023-04-06T16:56:34;19.40;;;8.90;;
69005;SDS011;56061;51.748;19.620;2023-04-06T16:59:00;17.30;;;9.10;;
69005;SDS011;56061;51.748;19.620;2023-04-06T17:01:27;15.50;;;8.60;;
69005;SDS011;56061;51.748;19.620;2023-04-06T17:03:54;14.60;;;8.00;;
69005;SDS011;56061;51.748;19.620;2023-04-06T17:06:22;17.00;;;9.30;;
69005;SDS011;56061;51.748;19.620;2023-04-06T17:08:49;11.50;;;6.60;;
69005;SDS011;56061;51.748;19.620;2023-04-06T17:11:16;15.20;;;7.30;;
69005;SDS011;56061;51.748;19.620;2023-04-06T17:13:48;15.60;;;8.10;;
69005;SDS011;56061;51.748;19.620;2023-04-06T17:16:15;13.80;;;7.90;;
69005;SDS011;56061;51.748;19.620;2023-04-06T17:18:43;13.50;;;7.10;;
69005;SDS011;56061;51.748;19.620;2023-04-06T17:21:10;15.40;;;9.80;;
69005;SDS011;56061;51.748;19.620;2023-04-06T17:23:39;16.80;;;9.00;;
69005;SDS011;56061;51.748;19.620;2023-04-06T17:26:06;11.90;;;6.00;;
69005;SDS011;56061;51.748;19.620;2023-04-06T17:28:33;13.40;;;7.20;;
69005;SDS011;56061;51.748;19.620;2023-04-06T17:31:00;15.10;;;7.50;;
69005;SDS011;56061;51.748;19.620;2023-04-06T17:33:27;17.50;;;9.40;;
69005;SDS011;56061;51.748;19.620;2023-04-06T17:35:54;15.30;;;8.60;;
69005;SDS011;56061;51.748;19.620;2023-04-06T17:38:21;15.20;;;7.00;;
69005;SDS011;56061;51.748;19.620;2023-04-06T17:40:49;16.20;;;9.10;;
69005;SDS011;56061;51.748;19.620;2023-04-06T17:43:15;14.80;;;9.00;;
69005;SDS011;56061;51.748;19.620;2023-04-06T17:45:43;17.50;;;9.10;;
69005;SDS011;56061;51.748;19.620;2023-04-06T17:48:09;15.60;;;7.90;;
69005;SDS011;56061;51.748;19.620;2023-04-06T17:50:36;16.50;;;8.80;;
69005;SDS011;56061;51.748;19.620;2023-04-06T17:53:04;21.80;;;13.10;;
69005;SDS011;56061;51.748;19.620;2023-04-06T17:55:31;15.70;;;9.70;;
69005;SDS011;56061;51.748;19.620;2023-04-06T17:57:57;21.10;;;11.50;;
69005;SDS011;56061;51.748;19.620;2023-04-06T18:00:24;16.00;;;9.20;;
69005;SDS011;56061;51.748;19.620;2023-04-06T18:02:51;18.20;;;10.80;;
69005;SDS011;56061;51.748;19.620;2023-04-06T18:05:19;16.10;;;7.10;;
69005;SDS011;56061;51.748;19.620;2023-04-06T18:07:47;17.40;;;10.30;;
69005;SDS011;56061;51.748;19.620;2023-04-06T18:10:13;13.90;;;6.50;;
69005;SDS011;56061;51.748;19.620;2023-04-06T18:12:42;17.80;;;10.10;;
69005;SDS011;56061;51.748;19.620;2023-04-06T18:15:08;16.90;;;8.40;;
69005;SDS011;56061;51.748;19.620;2023-04-06T18:17:35;14.40;;;7.00;;
69005;SDS011;56061;51.748;19.620;2023-04-06T18:20:01;12.60;;;6.60;;
69005;SDS011;56061;51.748;19.620;2023-04-06T18:22:31;14.30;;;7.00;;
69005;SDS011;56061;51.748;19.620;2023-04-06T18:24:58;15.30;;;7.60;;
69005;SDS011;56061;51.748;19.620;2023-04-06T18:27:26;14.30;;;7.10;;
69005;SDS011;56061;51.748;19.620;2023-04-06T18:29:53;13.60;;;8.20;;
69005;SDS011;56061;51.748;19.620;2023-04-06T18:32:19;13.90;;;8.50;;
69005;SDS011;56061;51.748;19.620;2023-04-06T18:34:46;11.50;;;6.50;;
69005;SDS011;56061;51.748;19.620;2023-04-06T18:37:12;13.70;;;8.00;;
69005;SDS011;56061;51.748;19.620;2023-04-06T18:39:41;12.90;;;7.20;;
69005;SDS011;56061;51.748;19.620;2023-04-06T18:42:08;12.40;;;7.40;;
69005;SDS011;56061;51.748;19.620;2023-04-06T18:44:34;16.10;;;9.10;;
69005;SDS011;56061;51.748;19.620;2023-04-06T18:47:01;15.10;;;8.70;;
69005;SDS011;56061;51.748;19.620;2023-04-06T18:49:27;16.10;;;9.30;;
69005;SDS011;56061;51.748;19.620;2023-04-06T18:51:54;14.70;;;9.20;;
69005;SDS011;56061;51.748;19.620;2023-04-06T18:54:22;13.00;;;7.80;;
69005;SDS011;56061;51.748;19.620;2023-04-06T18:56:49;15.50;;;9.10;;
69005;SDS011;56061;51.748;19.620;2023-04-06T18:59:15;14.70;;;8.00;;
69005;SDS011;56061;51.748;19.620;2023-04-06T19:01:42;12.90;;;6.60;;
69005;SDS011;56061;51.748;19.620;2023-04-06T19:04:12;15.20;;;8.70;;
69005;SDS011;56061;51.748;19.620;2023-04-06T19:06:38;12.20;;;7.10;;
69005;SDS011;56061;51.748;19.620;2023-04-06T19:09:05;14.10;;;8.30;;
69005;SDS011;56061;51.748;19.620;2023-04-06T19:11:32;13.60;;;7.70;;
69005;SDS011;56061;51.748;19.620;2023-04-06T19:13:59;13.60;;;8.20;;
69005;SDS011;56061;51.748;19.620;2023-04-06T19:16:25;12.60;;;7.40;;
69005;SDS011;56061;51.748;19.620;2023-04-06T19:18:52;11.40;;;5.90;;
69005;SDS011;56061;51.748;19.620;2023-04-06T19:21:21;12.50;;;6.10;;
69005;SDS011;56061;51.748;19.620;2023-04-06T19:23:50;15.60;;;9.50;;
69005;SDS011;56061;51.748;19.620;2023-04-06T19:26:18;15.80;;;9.40;;
69005;SDS011;56061;51.748;19.620;2023-04-06T19:28:45;15.50;;;9.00;;
69005;SDS011;56061;51.748;19.620;2023-04-06T19:31:14;16.20;;;7.50;;
69005;SDS011;56061;51.748;19.620;2023-04-06T19:33:43;16.00;;;9.00;;
69005;SDS011;56061;51.748;19.620;2023-04-06T19:36:10;13.90;;;6.90;;
69005;SDS011;56061;51.748;19.620;2023-04-06T19:38:38;14.70;;;8.10;;
69005;SDS011;56061;51.748;19.620;2023-04-06T19:41:05;12.90;;;6.60;;
69005;SDS011;56061;51.748;19.620;2023-04-06T19:43:31;15.50;;;8.70;;
69005;SDS011;56061;51.748;19.620;2023-04-06T19:45:58;15.90;;;9.70;;
69005;SDS011;56061;51.748;19.620;2023-04-06T19:48:24;13.70;;;7.90;;
69005;SDS011;56061;51.748;19.620;2023-04-06T19:50:52;15.70;;;10.10;;
69005;SDS011;56061;51.748;19.620;2023-04-06T19:53:22;14.50;;;7.20;;
69005;SDS011;56061;51.748;19.620;2023-04-06T19:55:49;10.90;;;6.10;;
69005;SDS011;56061;51.748;19.620;2023-04-06T19:58:16;16.90;;;10.20;;
69005;SDS011;56061;51.748;19.620;2023-04-06T20:00:43;17.40;;;9.60;;
69005;SDS011;56061;51.748;19.620;2023-04-06T20:03:09;18.20;;;11.20;;
69005;SDS011;56061;51.748;19.620;2023-04-06T20:05:36;21.00;;;10.90;;
69005;SDS011;56061;51.748;19.620;2023-04-06T20:08:03;18.60;;;10.30;;
69005;SDS011;56061;51.748;19.620;2023-04-06T20:10:30;14.60;;;7.60;;
69005;SDS011;56061;51.748;19.620;2023-04-06T20:12:57;16.70;;;9.40;;
69005;SDS011;56061;51.748;19.620;2023-04-06T20:15:26;14.50;;;8.10;;
69005;SDS011;56061;51.748;19.620;2023-04-06T20:17:55;11.80;;;5.90;;
69005;SDS011;56061;51.748;19.620;2023-04-06T20:20:22;14.00;;;7.90;;
69005;SDS011;56061;51.748;19.620;2023-04-06T20:22:48;17.10;;;8.20;;
69005;SDS011;56061;51.748;19.620;2023-04-06T20:25:16;14.70;;;7.70;;
69005;SDS011;56061;51.748;19.620;2023-04-06T20:27:43;14.30;;;7.50;;
69005;SDS011;56061;51.748;19.620;2023-04-06T20:30:13;16.60;;;8.90;;
69005;SDS011;56061;51.748;19.620;2023-04-06T20:32:40;13.90;;;7.40;;
69005;SDS011;56061;51.748;19.620;2023-04-06T20:35:07;16.30;;;7.40;;
69005;SDS011;56061;51.748;19.620;2023-04-06T20:37:34;17.20;;;8.90;;
69005;SDS011;56061;51.748;19.620;2023-04-06T20:40:03;17.00;;;9.60;;
69005;SDS011;56061;51.748;19.620;2023-04-06T20:42:30;11.10;;;6.20;;
69005;SDS011;56061;51.748;19.620;2023-04-06T20:44:57;16.80;;;8.60;;
69005;SDS011;56061;51.748;19.620;2023-04-06T20:47:24;16.50;;;7.50;;
69005;SDS011;56061;51.748;19.620;2023-04-06T20:49:52;12.70;;;6.20;;
69005;SDS011;56061;51.748;19.620;2023-04-06T20:52:19;16.70;;;9.10;;
69005;SDS011;56061;51.748;19.620;2023-04-06T20:54:45;16.30;;;7.20;;
69005;SDS011;56061;51.748;19.620;2023-04-06T20:57:12;14.50;;;8.60;;
69005;SDS011;56061;51.748;19.620;2023-04-06T20:59:39;15.30;;;8.50;;
69005;SDS011;56061;51.748;19.620;2023-04-06T21:02:06;14.30;;;7.20;;
69005;SDS011;56061;51.748;19.620;2023-04-06T21:04:33;12.80;;;7.90;;
69005;SDS011;56061;51.748;19.620;2023-04-06T21:07:07;13.10;;;7.40;;
69005;SDS011;56061;51.748;19.620;2023-04-06T21:09:38;14.20;;;8.40;;
69005;SDS011;56061;51.748;19.620;2023-04-06T21:12:06;13.40;;;7.70;;
69005;SDS011;56061;51.748;19.620;2023-04-06T21:14:33;16.20;;;8.50;;
69005;SDS011;56061;51.748;19.620;2023-04-06T21:16:59;14.10;;;8.10;;
69005;SDS011;56061;51.748;19.620;2023-04-06T21:19:26;12.40;;;7.40;;
69005;SDS011;56061;51.748;19.620;2023-04-06T21:21:53;14.80;;;8.20;;
69005;SDS011;56061;51.748;19.620;2023-04-06T21:24:20;14.40;;;8.20;;
69005;SDS011;56061;51.748;19.620;2023-04-06T21:26:46;15.40;;;7.60;;
69005;SDS011;56061;51.748;19.620;2023-04-06T21:29:13;12.20;;;6.50;;
69005;SDS011;56061;51.748;19.620;2023-04-06T21:31:39;10.10;;;5.20;;
69005;SDS011;56061;51.748;19.620;2023-04-06T21:34:08;15.90;;;8.40;;
69005;SDS011;56061;51.748;19.620;2023-04-06T21:36:36;11.60;;;6.40;;
69005;SDS011;56061;51.748;19.620;2023-04-06T21:39:04;16.10;;;9.40;;
69005;SDS011;56061;51.748;19.620;2023-04-06T21:41:32;14.40;;;8.20;;
69005;SDS011;56061;51.748;19.620;2023-04-06T21:43:59;14.00;;;8.30;;
69005;SDS011;56061;51.748;19.620;2023-04-06T21:46:26;15.60;;;8.50;;
69005;SDS011;56061;51.748;19.620;2023-04-06T21:48:52;13.40;;;7.20;;
69005;SDS011;56061;51.748;19.620;2023-04-06T21:51:21;10.60;;;5.90;;
69005;SDS011;56061;51.748;19.620;2023-04-06T21:53:48;11.60;;;6.40;;
69005;SDS011;56061;51.748;19.620;2023-04-06T21:56:23;13.20;;;7.60;;
69005;SDS011;56061;51.748;19.620;2023-04-06T21:58:51;12.80;;;6.70;;
69005;SDS011;56061;51.748;19.620;2023-04-06T22:01:20;14.80;;;8.60;;
69005;SDS011;56061;51.748;19.620;2023-04-06T22:03:46;16.00;;;9.00;;
69005;SDS011;56061;51.748;19.620;2023-04-06T22:06:13;13.30;;;7.60;;
69005;SDS011;56061;51.748;19.620;2023-04-06T22:08:40;15.40;;;8.80;;
69005;SDS011;56061;51.748;19.620;2023-04-06T22:11:08;13.20;;;7.20;;
69005;SDS011;56061;51.748;19.620;2023-04-06T22:13:37;14.60;;;8.70;;
69005;SDS011;56061;51.748;19.620;2023-04-06T22:16:04;13.20;;;6.00;;
69005;SDS011;56061;51.748;19.620;2023-04-06T22:18:32;12.60;;;7.10;;
69005;SDS011;56061;51.748;19.620;2023-04-06T22:21:00;14.90;;;7.70;;
69005;SDS011;56061;51.748;19.620;2023-04-06T22:23:29;14.80;;;8.90;;
69005;SDS011;56061;51.748;19.620;2023-04-06T22:25:59;14.10;;;7.80;;
69005;SDS011;56061;51.748;19.620;2023-04-06T22:28:26;12.30;;;6.60;;
69005;SDS011;56061;51.748;19.620;2023-04-06T22:30:52;12.40;;;7.90;;
69005;SDS011;56061;51.748;19.620;2023-04-06T22:33:19;12.40;;;7.70;;
69005;SDS011;56061;51.748;19.620;2023-04-06T22:35:45;11.40;;;5.60;;
69005;SDS011;56061;51.748;19.620;2023-04-06T22:38:11;13.00;;;7.20;;
69005;SDS011;56061;51.748;19.620;2023-04-06T22:40:38;12.40;;;6.80;;
69005;SDS011;56061;51.748;19.620;2023-04-06T22:43:04;10.90;;;5.90;;
69005;SDS011;56061;51.748;19.620;2023-04-06T22:45:31;13.20;;;7.10;;
69005;SDS011;56061;51.748;19.620;2023-04-06T22:47:57;12.30;;;7.00;;
69005;SDS011;56061;51.748;19.620;2023-04-06T22:50:24;11.40;;;6.40;;
69005;SDS011;56061;51.748;19.620;2023-04-06T22:52:51;13.10;;;7.40;;
69005;SDS011;56061;51.748;19.620;2023-04-06T22:55:18;12.60;;;6.60;;
69005;SDS011;56061;51.748;19.620;2023-04-06T22:57:44;9.80;;;5.80;;
69005;SDS011;56061;51.748;19.620;2023-04-06T23:00:11;12.10;;;6.60;;
69005;SDS011;56061;51.748;19.620;2023-04-06T23:02:38;14.70;;;6.90;;
69005;SDS011;56061;51.748;19.620;2023-04-06T23:05:05;12.40;;;6.90;;
69005;SDS011;56061;51.748;19.620;2023-04-06T23:07:32;8.60;;;4.30;;
69005;SDS011;56061;51.748;19.620;2023-04-06T23:10:00;12.50;;;6.90;;
69005;SDS011;56061;51.748;19.620;2023-04-06T23:12:27;11.60;;;6.50;;
69005;SDS011;56061;51.748;19.620;2023-04-06T23:14:54;12.10;;;6.70;;
69005;SDS011;56061;51.748;19.620;2023-04-06T23:17:20;11.50;;;6.60;;
69005;SDS011;56061;51.748;19.620;2023-04-06T23:19:47;9.60;;;5.10;;
69005;SDS011;56061;51.748;19.620;2023-04-06T23:22:13;11.50;;;6.10;;
69005;SDS011;56061;51.748;19.620;2023-04-06T23:24:40;10.60;;;5.60;;
69005;SDS011;56061;51.748;19.620;2023-04-06T23:27:06;12.60;;;6.80;;
69005;SDS011;56061;51.748;19.620;2023-04-06T23:29:33;9.60;;;5.00;;
69005;SDS011;56061;51.748;19.620;2023-04-06T23:31:59;10.90;;;5.60;;
69005;SDS011;56061;51.748;19.620;2023-04-06T23:34:26;12.70;;;7.20;;
69005;SDS011;56061;51.748;19.620;2023-04-06T23:36:53;13.60;;;8.10;;
69005;SDS011;56061;51.748;19.620;2023-04-06T23:39:20;13.00;;;7.30;;
69005;SDS011;56061;51.748;19.620;2023-04-06T23:41:46;11.90;;;7.00;;
69005;SDS011;56061;51.748;19.620;2023-04-06T23:44:13;11.60;;;6.70;;
69005;SDS011;56061;51.748;19.620;2023-04-06T23:46:39;14.60;;;8.30;;
69005;SDS011;56061;51.748;19.620;2023-04-06T23:49:06;16.40;;;7.90;;
69005;SDS011;56061;51.748;19.620;2023-04-06T23:51:32;14.80;;;8.50;;
69005;SDS011;56061;51.748;19.620;2023-04-06T23:53:59;15.40;;;8.40;;
69005;SDS011;56061;51.748;19.620;2023-04-06T23:56:25;12.60;;;7.30;;
69005;SDS011;56061;51.748;19.620;2023-04-06T23:58:52;13.60;;;7.20;;
